sensor_id;sensor_type;location;lat;lon;timestamp;P1;durP1;ratioP1;P2;durP2;ratioP2
40863;SDS011;26582;47.524;19.012;2023-10-31T00:01:27;15.82;;;8.27;;
40863;SDS011;26582;47.524;19.012;2023-10-31T00:03:56;14.95;;;8.88;;
40863;SDS011;26582;47.524;19.012;2023-10-31T00:06:22;14.15;;;8.43;;
40863;SDS011;26582;47.524;19.012;2023-10-31T00:08:49;14.55;;;8.63;;
40863;SDS011;26582;47.524;19.012;2023-10-31T00:11:16;16.05;;;8.38;;
40863;SDS011;26582;47.524;19.012;2023-10-31T00:13:43;15.73;;;9.00;;
40863;SDS011;26582;47.524;19.012;2023-10-31T00:16:09;15.60;;;8.43;;
40863;SDS011;26582;47.524;19.012;2023-10-31T00:18:36;15.43;;;8.32;;
40863;SDS011;26582;47.524;19.012;2023-10-31T00:21:04;19.48;;;9.23;;
40863;SDS011;26582;47.524;19.012;2023-10-31T00:23:31;13.48;;;8.68;;
40863;SDS011;26582;47.524;19.012;2023-10-31T00:25:58;15.82;;;8.65;;
40863;SDS011;26582;47.524;19.012;2023-10-31T00:28:25;14.68;;;9.35;;
40863;SDS011;26582;47.524;19.012;2023-10-31T00:30:51;16.58;;;9.27;;
40863;SDS011;26582;47.524;19.012;2023-10-31T00:33:19;14.93;;;8.82;;
40863;SDS011;26582;47.524;19.012;2023-10-31T00:35:46;17.50;;;9.55;;
40863;SDS011;26582;47.524;19.012;2023-10-31T00:38:14;12.88;;;8.68;;
40863;SDS011;26582;47.524;19.012;2023-10-31T00:40:40;16.10;;;9.25;;
40863;SDS011;26582;47.524;19.012;2023-10-31T00:43:07;15.63;;;9.30;;
40863;SDS011;26582;47.524;19.012;2023-10-31T00:45:34;18.20;;;10.88;;
40863;SDS011;26582;47.524;19.012;2023-10-31T00:48:01;17.77;;;9.90;;
40863;SDS011;26582;47.524;19.012;2023-10-31T00:50:29;20.80;;;10.20;;
40863;SDS011;26582;47.524;19.012;2023-10-31T00:52:55;20.58;;;10.75;;
40863;SDS011;26582;47.524;19.012;2023-10-31T00:55:23;20.67;;;11.70;;
40863;SDS011;26582;47.524;19.012;2023-10-31T00:57:50;21.25;;;10.63;;
40863;SDS011;26582;47.524;19.012;2023-10-31T01:00:17;19.85;;;10.80;;
40863;SDS011;26582;47.524;19.012;2023-10-31T01:02:45;16.77;;;10.55;;
40863;SDS011;26582;47.524;19.012;2023-10-31T01:05:12;16.15;;;10.25;;
40863;SDS011;26582;47.524;19.012;2023-10-31T01:07:39;19.25;;;9.38;;
40863;SDS011;26582;47.524;19.012;2023-10-31T01:10:09;16.50;;;10.00;;
40863;SDS011;26582;47.524;19.012;2023-10-31T01:12:37;21.15;;;11.45;;
40863;SDS011;26582;47.524;19.012;2023-10-31T01:15:04;17.95;;;10.10;;
40863;SDS011;26582;47.524;19.012;2023-10-31T01:17:32;20.73;;;10.32;;
40863;SDS011;26582;47.524;19.012;2023-10-31T01:19:59;18.40;;;10.43;;
40863;SDS011;26582;47.524;19.012;2023-10-31T01:22:26;19.67;;;10.50;;
40863;SDS011;26582;47.524;19.012;2023-10-31T01:24:52;19.33;;;10.35;;
40863;SDS011;26582;47.524;19.012;2023-10-31T01:27:19;18.90;;;9.98;;
40863;SDS011;26582;47.524;19.012;2023-10-31T01:29:47;17.88;;;9.95;;
40863;SDS011;26582;47.524;19.012;2023-10-31T01:32:14;18.10;;;10.25;;
40863;SDS011;26582;47.524;19.012;2023-10-31T01:34:41;16.42;;;10.10;;
40863;SDS011;26582;47.524;19.012;2023-10-31T01:37:07;16.65;;;9.88;;
40863;SDS011;26582;47.524;19.012;2023-10-31T01:39:35;19.73;;;11.50;;
40863;SDS011;26582;47.524;19.012;2023-10-31T01:42:02;18.40;;;10.32;;
40863;SDS011;26582;47.524;19.012;2023-10-31T01:44:29;17.23;;;10.82;;
40863;SDS011;26582;47.524;19.012;2023-10-31T01:46:58;18.15;;;10.55;;
40863;SDS011;26582;47.524;19.012;2023-10-31T01:49:24;21.83;;;11.60;;
40863;SDS011;26582;47.524;19.012;2023-10-31T01:51:51;16.92;;;10.20;;
40863;SDS011;26582;47.524;19.012;2023-10-31T01:54:18;16.98;;;10.23;;
40863;SDS011;26582;47.524;19.012;2023-10-31T01:56:45;20.75;;;10.57;;
40863;SDS011;26582;47.524;19.012;2023-10-31T01:59:13;21.40;;;10.20;;
40863;SDS011;26582;47.524;19.012;2023-10-31T02:01:40;16.50;;;10.50;;
40863;SDS011;26582;47.524;19.012;2023-10-31T02:04:09;19.67;;;10.60;;
40863;SDS011;26582;47.524;19.012;2023-10-31T02:06:36;17.00;;;10.45;;
40863;SDS011;26582;47.524;19.012;2023-10-31T02:09:02;18.63;;;10.52;;
40863;SDS011;26582;47.524;19.012;2023-10-31T02:11:30;20.08;;;11.45;;
40863;SDS011;26582;47.524;19.012;2023-10-31T02:13:57;15.65;;;10.63;;
40863;SDS011;26582;47.524;19.012;2023-10-31T02:16:23;20.45;;;10.65;;
40863;SDS011;26582;47.524;19.012;2023-10-31T02:18:50;20.30;;;10.68;;
40863;SDS011;26582;47.524;19.012;2023-10-31T02:21:19;19.33;;;11.05;;
40863;SDS011;26582;47.524;19.012;2023-10-31T02:23:56;16.42;;;10.63;;
40863;SDS011;26582;47.524;19.012;2023-10-31T02:26:24;18.50;;;10.68;;
40863;SDS011;26582;47.524;19.012;2023-10-31T02:28:54;18.80;;;10.15;;
40863;SDS011;26582;47.524;19.012;2023-10-31T02:31:21;20.48;;;10.93;;
40863;SDS011;26582;47.524;19.012;2023-10-31T02:33:47;20.50;;;11.07;;
40863;SDS011;26582;47.524;19.012;2023-10-31T02:36:14;18.10;;;10.63;;
40863;SDS011;26582;47.524;19.012;2023-10-31T02:38:41;20.02;;;11.20;;
40863;SDS011;26582;47.524;19.012;2023-10-31T02:41:09;19.80;;;10.98;;
40863;SDS011;26582;47.524;19.012;2023-10-31T02:43:36;19.13;;;11.18;;
40863;SDS011;26582;47.524;19.012;2023-10-31T02:46:03;20.63;;;11.32;;
40863;SDS011;26582;47.524;19.012;2023-10-31T02:48:30;17.17;;;10.50;;
40863;SDS011;26582;47.524;19.012;2023-10-31T02:51:03;20.70;;;10.68;;
40863;SDS011;26582;47.524;19.012;2023-10-31T02:53:30;17.60;;;10.23;;
40863;SDS011;26582;47.524;19.012;2023-10-31T02:55:57;16.70;;;10.48;;
40863;SDS011;26582;47.524;19.012;2023-10-31T02:58:25;17.00;;;10.30;;
40863;SDS011;26582;47.524;19.012;2023-10-31T03:00:53;17.67;;;11.13;;
40863;SDS011;26582;47.524;19.012;2023-10-31T03:03:20;19.83;;;10.57;;
40863;SDS011;26582;47.524;19.012;2023-10-31T03:05:48;17.77;;;10.90;;
40863;SDS011;26582;47.524;19.012;2023-10-31T03:08:15;15.15;;;10.02;;
40863;SDS011;26582;47.524;19.012;2023-10-31T03:10:47;20.42;;;11.10;;
40863;SDS011;26582;47.524;19.012;2023-10-31T03:13:16;20.30;;;11.07;;
40863;SDS011;26582;47.524;19.012;2023-10-31T03:15:44;19.15;;;10.93;;
40863;SDS011;26582;47.524;19.012;2023-10-31T03:18:12;17.23;;;10.40;;
40863;SDS011;26582;47.524;19.012;2023-10-31T03:20:39;19.75;;;10.88;;
40863;SDS011;26582;47.524;19.012;2023-10-31T03:23:06;21.85;;;11.55;;
40863;SDS011;26582;47.524;19.012;2023-10-31T03:25:33;17.98;;;10.52;;
40863;SDS011;26582;47.524;19.012;2023-10-31T03:28:00;16.45;;;10.13;;
40863;SDS011;26582;47.524;19.012;2023-10-31T03:30:26;18.48;;;10.77;;
40863;SDS011;26582;47.524;19.012;2023-10-31T03:32:54;16.35;;;10.23;;
40863;SDS011;26582;47.524;19.012;2023-10-31T03:35:21;17.27;;;10.65;;
40863;SDS011;26582;47.524;19.012;2023-10-31T03:37:47;15.90;;;10.40;;
40863;SDS011;26582;47.524;19.012;2023-10-31T03:40:14;18.20;;;9.82;;
40863;SDS011;26582;47.524;19.012;2023-10-31T03:42:40;19.60;;;10.38;;
40863;SDS011;26582;47.524;19.012;2023-10-31T03:45:07;18.60;;;9.73;;
40863;SDS011;26582;47.524;19.012;2023-10-31T03:47:35;18.30;;;10.52;;
40863;SDS011;26582;47.524;19.012;2023-10-31T03:50:03;16.33;;;10.48;;
40863;SDS011;26582;47.524;19.012;2023-10-31T03:52:31;19.33;;;11.05;;
40863;SDS011;26582;47.524;19.012;2023-10-31T03:54:57;16.95;;;10.95;;
40863;SDS011;26582;47.524;19.012;2023-10-31T03:57:24;16.98;;;10.50;;
40863;SDS011;26582;47.524;19.012;2023-10-31T03:59:52;17.45;;;11.10;;
40863;SDS011;26582;47.524;19.012;2023-10-31T04:02:18;17.63;;;10.05;;
40863;SDS011;26582;47.524;19.012;2023-10-31T04:04:45;16.80;;;9.70;;
40863;SDS011;26582;47.524;19.012;2023-10-31T04:07:13;13.90;;;8.70;;
40863;SDS011;26582;47.524;19.012;2023-10-31T04:09:40;16.80;;;9.32;;
40863;SDS011;26582;47.524;19.012;2023-10-31T04:12:07;16.55;;;8.93;;
40863;SDS011;26582;47.524;19.012;2023-10-31T04:14:34;15.13;;;8.32;;
40863;SDS011;26582;47.524;19.012;2023-10-31T04:17:01;18.15;;;10.43;;
40863;SDS011;26582;47.524;19.012;2023-10-31T04:19:27;15.77;;;9.43;;
40863;SDS011;26582;47.524;19.012;2023-10-31T04:21:54;14.98;;;9.82;;
40863;SDS011;26582;47.524;19.012;2023-10-31T04:24:22;16.20;;;9.52;;
40863;SDS011;26582;47.524;19.012;2023-10-31T04:26:49;16.77;;;9.60;;
40863;SDS011;26582;47.524;19.012;2023-10-31T04:29:15;15.45;;;8.75;;
40863;SDS011;26582;47.524;19.012;2023-10-31T04:31:42;18.20;;;8.95;;
40863;SDS011;26582;47.524;19.012;2023-10-31T04:34:09;13.05;;;9.05;;
40863;SDS011;26582;47.524;19.012;2023-10-31T04:36:36;14.73;;;8.68;;
40863;SDS011;26582;47.524;19.012;2023-10-31T04:39:02;16.23;;;9.30;;
40863;SDS011;26582;47.524;19.012;2023-10-31T04:41:31;16.63;;;9.15;;
40863;SDS011;26582;47.524;19.012;2023-10-31T04:43:57;14.52;;;8.30;;
40863;SDS011;26582;47.524;19.012;2023-10-31T04:46:24;13.15;;;8.43;;
40863;SDS011;26582;47.524;19.012;2023-10-31T04:48:52;17.35;;;9.05;;
40863;SDS011;26582;47.524;19.012;2023-10-31T04:51:18;14.55;;;8.38;;
40863;SDS011;26582;47.524;19.012;2023-10-31T04:53:45;14.15;;;8.75;;
40863;SDS011;26582;47.524;19.012;2023-10-31T04:56:12;12.88;;;7.68;;
40863;SDS011;26582;47.524;19.012;2023-10-31T04:58:41;12.93;;;8.20;;
40863;SDS011;26582;47.524;19.012;2023-10-31T05:01:08;11.88;;;7.93;;
40863;SDS011;26582;47.524;19.012;2023-10-31T05:03:36;12.98;;;8.52;;
40863;SDS011;26582;47.524;19.012;2023-10-31T05:06:03;14.98;;;8.25;;
40863;SDS011;26582;47.524;19.012;2023-10-31T05:08:30;16.05;;;8.38;;
40863;SDS011;26582;47.524;19.012;2023-10-31T05:10:57;13.43;;;7.57;;
40863;SDS011;26582;47.524;19.012;2023-10-31T05:13:24;12.13;;;6.88;;
40863;SDS011;26582;47.524;19.012;2023-10-31T05:15:52;14.27;;;7.50;;
40863;SDS011;26582;47.524;19.012;2023-10-31T05:18:18;11.00;;;7.00;;
40863;SDS011;26582;47.524;19.012;2023-10-31T05:20:45;10.60;;;6.57;;
40863;SDS011;26582;47.524;19.012;2023-10-31T05:23:13;14.15;;;7.35;;
40863;SDS011;26582;47.524;19.012;2023-10-31T05:25:40;11.57;;;6.82;;
40863;SDS011;26582;47.524;19.012;2023-10-31T05:28:06;11.80;;;6.63;;
40863;SDS011;26582;47.524;19.012;2023-10-31T05:30:33;11.00;;;6.78;;
40863;SDS011;26582;47.524;19.012;2023-10-31T05:33:01;11.40;;;6.40;;
40863;SDS011;26582;47.524;19.012;2023-10-31T05:35:28;11.05;;;6.18;;
40863;SDS011;26582;47.524;19.012;2023-10-31T05:37:55;14.80;;;6.80;;
40863;SDS011;26582;47.524;19.012;2023-10-31T05:40:22;10.63;;;6.72;;
40863;SDS011;26582;47.524;19.012;2023-10-31T05:42:50;13.45;;;6.88;;
40863;SDS011;26582;47.524;19.012;2023-10-31T05:45:17;10.48;;;5.68;;
40863;SDS011;26582;47.524;19.012;2023-10-31T05:47:44;11.40;;;6.70;;
40863;SDS011;26582;47.524;19.012;2023-10-31T05:50:13;14.27;;;5.93;;
40863;SDS011;26582;47.524;19.012;2023-10-31T05:52:40;12.32;;;5.75;;
40863;SDS011;26582;47.524;19.012;2023-10-31T05:55:07;10.80;;;5.68;;
40863;SDS011;26582;47.524;19.012;2023-10-31T05:57:34;12.20;;;6.03;;
40863;SDS011;26582;47.524;19.012;2023-10-31T06:00:01;8.52;;;5.78;;
40863;SDS011;26582;47.524;19.012;2023-10-31T06:02:37;11.30;;;6.40;;
40863;SDS011;26582;47.524;19.012;2023-10-31T06:05:04;10.20;;;5.60;;
40863;SDS011;26582;47.524;19.012;2023-10-31T06:07:33;9.27;;;5.80;;
40863;SDS011;26582;47.524;19.012;2023-10-31T06:10:00;9.35;;;5.75;;
40863;SDS011;26582;47.524;19.012;2023-10-31T06:12:28;11.32;;;6.22;;
40863;SDS011;26582;47.524;19.012;2023-10-31T06:14:55;12.77;;;7.00;;
40863;SDS011;26582;47.524;19.012;2023-10-31T06:17:22;13.75;;;6.70;;
40863;SDS011;26582;47.524;19.012;2023-10-31T06:19:50;11.50;;;5.97;;
40863;SDS011;26582;47.524;19.012;2023-10-31T06:22:16;11.38;;;5.97;;
40863;SDS011;26582;47.524;19.012;2023-10-31T06:24:44;12.07;;;5.57;;
40863;SDS011;26582;47.524;19.012;2023-10-31T06:27:11;11.88;;;6.53;;
40863;SDS011;26582;47.524;19.012;2023-10-31T06:29:38;10.02;;;6.55;;
40863;SDS011;26582;47.524;19.012;2023-10-31T06:32:05;9.95;;;5.78;;
40863;SDS011;26582;47.524;19.012;2023-10-31T06:34:32;9.65;;;5.80;;
40863;SDS011;26582;47.524;19.012;2023-10-31T06:37:01;16.17;;;5.65;;
40863;SDS011;26582;47.524;19.012;2023-10-31T06:39:28;11.90;;;6.10;;
40863;SDS011;26582;47.524;19.012;2023-10-31T06:41:56;10.63;;;5.40;;
40863;SDS011;26582;47.524;19.012;2023-10-31T06:44:23;9.10;;;5.53;;
40863;SDS011;26582;47.524;19.012;2023-10-31T06:46:50;6.88;;;4.55;;
40863;SDS011;26582;47.524;19.012;2023-10-31T06:49:16;10.73;;;5.00;;
40863;SDS011;26582;47.524;19.012;2023-10-31T06:51:47;12.05;;;5.25;;
40863;SDS011;26582;47.524;19.012;2023-10-31T06:54:16;8.43;;;4.90;;
40863;SDS011;26582;47.524;19.012;2023-10-31T06:56:43;8.38;;;4.32;;
40863;SDS011;26582;47.524;19.012;2023-10-31T06:59:18;10.02;;;4.72;;
40863;SDS011;26582;47.524;19.012;2023-10-31T07:01:45;6.82;;;4.00;;
40863;SDS011;26582;47.524;19.012;2023-10-31T07:04:12;10.00;;;4.18;;
40863;SDS011;26582;47.524;19.012;2023-10-31T07:06:39;5.97;;;3.92;;
40863;SDS011;26582;47.524;19.012;2023-10-31T07:09:08;6.38;;;4.20;;
40863;SDS011;26582;47.524;19.012;2023-10-31T07:11:35;11.07;;;4.82;;
40863;SDS011;26582;47.524;19.012;2023-10-31T07:14:02;8.02;;;4.10;;
40863;SDS011;26582;47.524;19.012;2023-10-31T07:16:31;12.68;;;4.15;;
40863;SDS011;26582;47.524;19.012;2023-10-31T07:21:25;4.35;;;2.72;;
40863;SDS011;26582;47.524;19.012;2023-10-31T07:23:52;7.32;;;3.28;;
40863;SDS011;26582;47.524;19.012;2023-10-31T07:26:19;8.35;;;3.50;;
40863;SDS011;26582;47.524;19.012;2023-10-31T07:28:45;7.80;;;3.78;;
40863;SDS011;26582;47.524;19.012;2023-10-31T07:31:13;9.15;;;3.50;;
40863;SDS011;26582;47.524;19.012;2023-10-31T07:33:41;6.28;;;3.08;;
40863;SDS011;26582;47.524;19.012;2023-10-31T07:38:36;4.93;;;3.17;;
40863;SDS011;26582;47.524;19.012;2023-10-31T07:41:03;7.88;;;3.70;;
40863;SDS011;26582;47.524;19.012;2023-10-31T07:43:30;7.03;;;3.72;;
40863;SDS011;26582;47.524;19.012;2023-10-31T07:45:56;7.28;;;3.35;;
40863;SDS011;26582;47.524;19.012;2023-10-31T07:48:23;8.05;;;3.80;;
40863;SDS011;26582;47.524;19.012;2023-10-31T07:50:51;8.45;;;3.90;;
40863;SDS011;26582;47.524;19.012;2023-10-31T07:53:18;6.82;;;3.05;;
40863;SDS011;26582;47.524;19.012;2023-10-31T07:55:44;6.50;;;3.20;;
40863;SDS011;26582;47.524;19.012;2023-10-31T07:58:11;7.50;;;3.70;;
40863;SDS011;26582;47.524;19.012;2023-10-31T08:00:38;7.68;;;3.25;;
40863;SDS011;26582;47.524;19.012;2023-10-31T08:03:05;7.35;;;3.20;;
40863;SDS011;26582;47.524;19.012;2023-10-31T08:05:31;5.00;;;3.10;;
40863;SDS011;26582;47.524;19.012;2023-10-31T08:08:00;9.55;;;3.42;;
40863;SDS011;26582;47.524;19.012;2023-10-31T08:10:27;12.95;;;3.50;;
40863;SDS011;26582;47.524;19.012;2023-10-31T08:12:53;6.40;;;3.58;;
40863;SDS011;26582;47.524;19.012;2023-10-31T08:15:20;10.32;;;3.40;;
40863;SDS011;26582;47.524;19.012;2023-10-31T08:17:47;7.15;;;3.28;;
40863;SDS011;26582;47.524;19.012;2023-10-31T08:20:14;6.57;;;3.00;;
40863;SDS011;26582;47.524;19.012;2023-10-31T08:22:40;6.32;;;3.20;;
40863;SDS011;26582;47.524;19.012;2023-10-31T08:25:10;5.40;;;3.10;;
40863;SDS011;26582;47.524;19.012;2023-10-31T08:27:37;6.82;;;3.33;;
40863;SDS011;26582;47.524;19.012;2023-10-31T08:30:04;7.53;;;3.50;;
40863;SDS011;26582;47.524;19.012;2023-10-31T08:32:32;5.95;;;3.08;;
40863;SDS011;26582;47.524;19.012;2023-10-31T08:34:58;6.07;;;2.90;;
40863;SDS011;26582;47.524;19.012;2023-10-31T08:37:26;4.82;;;2.70;;
40863;SDS011;26582;47.524;19.012;2023-10-31T08:39:52;7.35;;;3.20;;
40863;SDS011;26582;47.524;19.012;2023-10-31T08:42:21;6.07;;;3.30;;
40863;SDS011;26582;47.524;19.012;2023-10-31T08:44:47;6.45;;;3.25;;
40863;SDS011;26582;47.524;19.012;2023-10-31T08:47:14;8.70;;;3.45;;
40863;SDS011;26582;47.524;19.012;2023-10-31T08:49:41;6.20;;;3.13;;
40863;SDS011;26582;47.524;19.012;2023-10-31T08:52:07;4.68;;;2.75;;
40863;SDS011;26582;47.524;19.012;2023-10-31T08:54:34;8.35;;;3.35;;
40863;SDS011;26582;47.524;19.012;2023-10-31T08:57:01;5.45;;;3.22;;
40863;SDS011;26582;47.524;19.012;2023-10-31T08:59:30;7.05;;;3.30;;
40863;SDS011;26582;47.524;19.012;2023-10-31T09:01:56;7.13;;;3.22;;
40863;SDS011;26582;47.524;19.012;2023-10-31T09:04:23;7.00;;;3.45;;
40863;SDS011;26582;47.524;19.012;2023-10-31T09:06:50;6.78;;;3.20;;
40863;SDS011;26582;47.524;19.012;2023-10-31T09:09:16;6.22;;;3.10;;
40863;SDS011;26582;47.524;19.012;2023-10-31T09:11:43;8.40;;;3.53;;
40863;SDS011;26582;47.524;19.012;2023-10-31T09:14:10;7.20;;;3.08;;
40863;SDS011;26582;47.524;19.012;2023-10-31T09:16:38;15.57;;;4.25;;
40863;SDS011;26582;47.524;19.012;2023-10-31T09:19:05;10.88;;;3.00;;
40863;SDS011;26582;47.524;19.012;2023-10-31T09:21:31;6.05;;;3.22;;
40863;SDS011;26582;47.524;19.012;2023-10-31T09:23:58;6.95;;;3.40;;
40863;SDS011;26582;47.524;19.012;2023-10-31T09:26:25;5.53;;;3.10;;
40863;SDS011;26582;47.524;19.012;2023-10-31T09:28:51;5.97;;;3.00;;
40863;SDS011;26582;47.524;19.012;2023-10-31T09:31:19;4.40;;;2.47;;
40863;SDS011;26582;47.524;19.012;2023-10-31T09:33:47;4.70;;;2.85;;
40863;SDS011;26582;47.524;19.012;2023-10-31T09:36:13;8.73;;;3.03;;
40863;SDS011;26582;47.524;19.012;2023-10-31T09:38:40;7.10;;;3.00;;
40863;SDS011;26582;47.524;19.012;2023-10-31T09:41:07;9.40;;;3.13;;
40863;SDS011;26582;47.524;19.012;2023-10-31T09:43:34;4.82;;;2.92;;
40863;SDS011;26582;47.524;19.012;2023-10-31T09:46:01;9.65;;;3.22;;
40863;SDS011;26582;47.524;19.012;2023-10-31T09:48:28;8.40;;;3.00;;
40863;SDS011;26582;47.524;19.012;2023-10-31T09:50:57;4.63;;;2.70;;
40863;SDS011;26582;47.524;19.012;2023-10-31T09:53:24;6.63;;;2.97;;
40863;SDS011;26582;47.524;19.012;2023-10-31T09:55:51;6.80;;;3.30;;
40863;SDS011;26582;47.524;19.012;2023-10-31T09:58:20;6.15;;;2.95;;
40863;SDS011;26582;47.524;19.012;2023-10-31T10:00:47;5.70;;;3.22;;
40863;SDS011;26582;47.524;19.012;2023-10-31T10:03:14;7.45;;;3.30;;
40863;SDS011;26582;47.524;19.012;2023-10-31T10:05:43;9.48;;;3.53;;
40863;SDS011;26582;47.524;19.012;2023-10-31T10:08:11;6.97;;;3.40;;
40863;SDS011;26582;47.524;19.012;2023-10-31T10:10:38;5.40;;;2.90;;
40863;SDS011;26582;47.524;19.012;2023-10-31T10:13:05;8.15;;;2.85;;
40863;SDS011;26582;47.524;19.012;2023-10-31T10:15:42;7.05;;;2.90;;
40863;SDS011;26582;47.524;19.012;2023-10-31T10:18:10;6.63;;;3.10;;
40863;SDS011;26582;47.524;19.012;2023-10-31T10:20:38;8.15;;;2.85;;
40863;SDS011;26582;47.524;19.012;2023-10-31T10:23:23;6.32;;;2.95;;
40863;SDS011;26582;47.524;19.012;2023-10-31T10:25:50;8.98;;;2.90;;
40863;SDS011;26582;47.524;19.012;2023-10-31T10:28:17;4.25;;;2.70;;
40863;SDS011;26582;47.524;19.012;2023-10-31T10:30:45;5.38;;;2.78;;
40863;SDS011;26582;47.524;19.012;2023-10-31T10:33:12;5.28;;;2.83;;
40863;SDS011;26582;47.524;19.012;2023-10-31T10:35:39;6.78;;;2.88;;
40863;SDS011;26582;47.524;19.012;2023-10-31T10:38:06;11.13;;;3.10;;
40863;SDS011;26582;47.524;19.012;2023-10-31T10:40:40;5.75;;;2.53;;
40863;SDS011;26582;47.524;19.012;2023-10-31T10:43:09;4.70;;;2.88;;
40863;SDS011;26582;47.524;19.012;2023-10-31T10:45:44;6.57;;;3.67;;
40863;SDS011;26582;47.524;19.012;2023-10-31T10:48:11;8.98;;;3.30;;
40863;SDS011;26582;47.524;19.012;2023-10-31T10:50:41;7.75;;;2.50;;
40863;SDS011;26582;47.524;19.012;2023-10-31T10:53:11;5.93;;;2.65;;
40863;SDS011;26582;47.524;19.012;2023-10-31T10:55:45;5.53;;;2.97;;
40863;SDS011;26582;47.524;19.012;2023-10-31T10:58:20;6.07;;;3.05;;
40863;SDS011;26582;47.524;19.012;2023-10-31T11:00:55;5.15;;;2.83;;
40863;SDS011;26582;47.524;19.012;2023-10-31T11:03:23;7.97;;;2.90;;
40863;SDS011;26582;47.524;19.012;2023-10-31T11:05:51;7.50;;;3.03;;
40863;SDS011;26582;47.524;19.012;2023-10-31T11:08:18;6.85;;;2.85;;
40863;SDS011;26582;47.524;19.012;2023-10-31T11:10:47;7.55;;;2.65;;
40863;SDS011;26582;47.524;19.012;2023-10-31T11:13:15;6.03;;;2.25;;
40863;SDS011;26582;47.524;19.012;2023-10-31T11:15:42;6.22;;;2.53;;
40863;SDS011;26582;47.524;19.012;2023-10-31T11:18:09;7.57;;;2.60;;
40863;SDS011;26582;47.524;19.012;2023-10-31T11:20:37;4.47;;;2.05;;
40863;SDS011;26582;47.524;19.012;2023-10-31T11:23:05;5.25;;;2.78;;
40863;SDS011;26582;47.524;19.012;2023-10-31T11:25:32;8.10;;;3.80;;
40863;SDS011;26582;47.524;19.012;2023-10-31T11:28:13;5.75;;;3.42;;
40863;SDS011;26582;47.524;19.012;2023-10-31T11:30:41;6.28;;;3.30;;
40863;SDS011;26582;47.524;19.012;2023-10-31T11:33:11;5.57;;;3.08;;
40863;SDS011;26582;47.524;19.012;2023-10-31T11:35:39;5.45;;;2.17;;
40863;SDS011;26582;47.524;19.012;2023-10-31T11:38:07;4.22;;;2.05;;
40863;SDS011;26582;47.524;19.012;2023-10-31T11:40:36;5.07;;;2.50;;
40863;SDS011;26582;47.524;19.012;2023-10-31T11:43:03;4.25;;;2.33;;
40863;SDS011;26582;47.524;19.012;2023-10-31T11:45:35;5.32;;;2.22;;
40863;SDS011;26582;47.524;19.012;2023-10-31T11:48:03;5.65;;;2.47;;
40863;SDS011;26582;47.524;19.012;2023-10-31T11:50:30;5.10;;;2.40;;
40863;SDS011;26582;47.524;19.012;2023-10-31T11:52:58;5.80;;;3.00;;
40863;SDS011;26582;47.524;19.012;2023-10-31T11:55:26;5.03;;;2.50;;
40863;SDS011;26582;47.524;19.012;2023-10-31T11:57:53;4.15;;;2.50;;
40863;SDS011;26582;47.524;19.012;2023-10-31T12:00:20;4.93;;;2.40;;
40863;SDS011;26582;47.524;19.012;2023-10-31T12:02:58;8.38;;;2.72;;
40863;SDS011;26582;47.524;19.012;2023-10-31T12:05:26;5.72;;;2.42;;
40863;SDS011;26582;47.524;19.012;2023-10-31T12:07:53;7.00;;;2.65;;
40863;SDS011;26582;47.524;19.012;2023-10-31T12:10:23;9.23;;;3.47;;
40863;SDS011;26582;47.524;19.012;2023-10-31T12:12:52;5.72;;;3.10;;
40863;SDS011;26582;47.524;19.012;2023-10-31T12:15:19;8.80;;;3.78;;
40863;SDS011;26582;47.524;19.012;2023-10-31T12:17:46;9.30;;;3.88;;
40863;SDS011;26582;47.524;19.012;2023-10-31T12:20:14;7.43;;;3.95;;
40863;SDS011;26582;47.524;19.012;2023-10-31T12:22:42;17.13;;;5.30;;
40863;SDS011;26582;47.524;19.012;2023-10-31T12:25:09;11.30;;;4.00;;
40863;SDS011;26582;47.524;19.012;2023-10-31T12:27:43;5.60;;;3.45;;
40863;SDS011;26582;47.524;19.012;2023-10-31T12:30:12;8.63;;;4.30;;
40863;SDS011;26582;47.524;19.012;2023-10-31T12:35:08;6.25;;;3.90;;
40863;SDS011;26582;47.524;19.012;2023-10-31T12:37:43;11.82;;;4.63;;
40863;SDS011;26582;47.524;19.012;2023-10-31T12:40:11;15.23;;;5.50;;
40863;SDS011;26582;47.524;19.012;2023-10-31T12:42:40;13.75;;;5.90;;
40863;SDS011;26582;47.524;19.012;2023-10-31T12:45:08;9.25;;;5.22;;
40863;SDS011;26582;47.524;19.012;2023-10-31T12:47:36;9.57;;;4.35;;
40863;SDS011;26582;47.524;19.012;2023-10-31T12:50:06;6.63;;;4.93;;
40863;SDS011;26582;47.524;19.012;2023-10-31T12:52:50;9.52;;;5.13;;
40863;SDS011;26582;47.524;19.012;2023-10-31T12:55:19;6.95;;;5.40;;
40863;SDS011;26582;47.524;19.012;2023-10-31T12:57:47;10.00;;;5.90;;
40863;SDS011;26582;47.524;19.012;2023-10-31T13:00:15;9.60;;;5.47;;
40863;SDS011;26582;47.524;19.012;2023-10-31T13:02:44;8.75;;;6.35;;
40863;SDS011;26582;47.524;19.012;2023-10-31T13:05:11;10.80;;;6.88;;
40863;SDS011;26582;47.524;19.012;2023-10-31T13:07:39;8.88;;;5.97;;
40863;SDS011;26582;47.524;19.012;2023-10-31T13:10:08;9.23;;;5.80;;
40863;SDS011;26582;47.524;19.012;2023-10-31T13:12:35;9.48;;;6.00;;
40863;SDS011;26582;47.524;19.012;2023-10-31T13:15:03;9.85;;;5.45;;
40863;SDS011;26582;47.524;19.012;2023-10-31T13:17:30;7.00;;;5.72;;
40863;SDS011;26582;47.524;19.012;2023-10-31T13:19:57;10.13;;;5.47;;
40863;SDS011;26582;47.524;19.012;2023-10-31T13:22:24;9.60;;;5.50;;
40863;SDS011;26582;47.524;19.012;2023-10-31T13:24:51;9.13;;;5.57;;
40863;SDS011;26582;47.524;19.012;2023-10-31T13:27:19;11.15;;;5.63;;
40863;SDS011;26582;47.524;19.012;2023-10-31T13:29:46;7.57;;;5.32;;
40863;SDS011;26582;47.524;19.012;2023-10-31T13:32:15;10.10;;;5.50;;
40863;SDS011;26582;47.524;19.012;2023-10-31T13:34:42;8.05;;;4.78;;
40863;SDS011;26582;47.524;19.012;2023-10-31T13:37:09;7.93;;;4.47;;
40863;SDS011;26582;47.524;19.012;2023-10-31T13:39:35;8.65;;;4.78;;
40863;SDS011;26582;47.524;19.012;2023-10-31T13:42:02;6.82;;;4.13;;
40863;SDS011;26582;47.524;19.012;2023-10-31T13:44:30;6.93;;;4.20;;
40863;SDS011;26582;47.524;19.012;2023-10-31T13:46:57;11.13;;;3.28;;
40863;SDS011;26582;47.524;19.012;2023-10-31T13:49:24;5.00;;;3.00;;
40863;SDS011;26582;47.524;19.012;2023-10-31T13:51:50;4.32;;;2.80;;
40863;SDS011;26582;47.524;19.012;2023-10-31T13:54:17;5.80;;;2.10;;
40863;SDS011;26582;47.524;19.012;2023-10-31T13:56:44;2.50;;;1.80;;
40863;SDS011;26582;47.524;19.012;2023-10-31T13:59:11;2.22;;;1.90;;
40863;SDS011;26582;47.524;19.012;2023-10-31T14:01:40;4.00;;;1.70;;
40863;SDS011;26582;47.524;19.012;2023-10-31T14:04:07;2.50;;;1.73;;
40863;SDS011;26582;47.524;19.012;2023-10-31T14:06:34;2.72;;;1.83;;
40863;SDS011;26582;47.524;19.012;2023-10-31T14:09:01;3.10;;;1.70;;
40863;SDS011;26582;47.524;19.012;2023-10-31T14:11:30;1.98;;;1.48;;
40863;SDS011;26582;47.524;19.012;2023-10-31T14:13:57;1.70;;;1.50;;
40863;SDS011;26582;47.524;19.012;2023-10-31T14:16:28;1.23;;;1.10;;
40863;SDS011;26582;47.524;19.012;2023-10-31T14:18:56;1.42;;;1.30;;
40863;SDS011;26582;47.524;19.012;2023-10-31T14:21:22;1.65;;;1.25;;
40863;SDS011;26582;47.524;19.012;2023-10-31T14:23:51;1.50;;;1.40;;
40863;SDS011;26582;47.524;19.012;2023-10-31T14:26:19;3.40;;;1.52;;
40863;SDS011;26582;47.524;19.012;2023-10-31T14:28:46;2.38;;;1.45;;
40863;SDS011;26582;47.524;19.012;2023-10-31T14:31:13;2.15;;;1.23;;
40863;SDS011;26582;47.524;19.012;2023-10-31T14:33:39;1.60;;;1.25;;
40863;SDS011;26582;47.524;19.012;2023-10-31T14:36:08;2.03;;;1.50;;